• Join FlightAware (Why Join?)
  • Login
  • US Flag 
07:47PM EDT


 

Airport Tracker/Info


-or-


 

Live Flight TrackerFlight Track Log ✈ N946CE ✈ 03-May-2013 ✈ KSOP - KPTK

Flight Track Log - Related Links

Times and Time Zones

All times are in EDT time to prevent confusion due to time zone crossing. See the N946CE flight status page for this flight to view local times or setup timezone preferences in your user account.

Time Position Orientation Groundspeed Altitude Reporting Facility
EDT Latitude Longitude Course Direction KTS MPH feet Rate Location/Type
11:32AM 35.3239 -79.3853 338° Northwest 170 196 3,300  Level Washington Center
11:33AM 35.3589 -79.4047 336° Northwest 170 196 4,800 1,500 Climbing Washington Center
11:34AM 35.4083 -79.4222 344° North 165 190 6,300 1,380 Climbing Washington Center
11:35AM 35.4475 -79.4394 340° North 165 190 7,700 1,500 Climbing Washington Center
11:36AM 35.5008 -79.4625 341° North 170 196 9,400 1,140 Climbing Washington Center
11:37AM 35.6330 -79.5415 338° Northwest  Level FlightAware Approximate
11:37AM 35.5525 -79.4803 344° North 189 217 10,000  Level Washington Center
11:38AM 35.6122 -79.5061 341° North 214 246 10,000 300 Level Washington Center
11:39AM 35.6800 -79.5403 338° Northwest 236 272 10,600 1,020 Climbing Washington Center
11:40AM 35.7314 -79.5631 340° North 224 258 12,100 1,620 Climbing Washington Center
11:41AM 35.7908 -79.5892 340° North 207 238 13,900 1,500 Climbing Washington Center
11:42AM 35.8403 -79.6097 341° North 207 238 15,200 1,020 Climbing Washington Center
11:43AM 35.9083 -79.6361 343° North 217 250 16,000 780 Climbing Washington Center
11:44AM 35.9658 -79.6622 340° North 235 270 16,900 1,080 Climbing Washington Center
11:45AM 36.0317 -79.6914 340° North 235 270 18,200 1,320 Climbing Washington Center
11:46AM 36.0850 -79.7119 343° North 222 255 19,500 1,260 Climbing Washington Center
11:47AM 36.1486 -79.7436 338° Northwest 227 261 20,800 720 Climbing Washington Center
11:48AM 36.2067 -79.7597 347° North 232 267 21,000 60 Climbing Washington Center
11:49AM 36.2864 -79.7433 North 247 284 21,000  Level Washington Center
11:50AM 36.3536 -79.7289 10° North 262 302 21,000  Level Washington Center
11:51AM 36.4272 -79.7119 10° North 262 302 21,000  Level Washington Center
11:52AM 36.5031 -79.6928 11° North 267 307 21,000 240 Level Washington Center
11:53AM 36.5744 -79.6811 North 267 307 21,600 840 Climbing Washington Center
11:54AM 36.6461 -79.7236 335° Northwest 245 282 22,700 660 Climbing Washington Center
11:55AM 36.7117 -79.7583 337° Northwest 245 282 23,000 180 Climbing Washington Center
11:56AM 36.7814 -79.7906 340° North 250 288 23,100 300 Climbing Washington Center
11:57AM 36.8531 -79.8256 339° North 263 303 23,700 720 Climbing Washington Center
11:58AM 36.9208 -79.8606 338° Northwest 269 310 24,600 840 Climbing Washington Center
11:59AM 36.9781 -79.8897 338° Northwest 251 289 25,400 660 Climbing Washington Center
12:00PM 37.0439 -79.9194 340° North 246 283 26,000 240 Climbing Washington Center
12:01PM 37.1114 -79.9517 339° North 251 289 26,000  Level Washington Center
12:02PM 37.1769 -79.9869 337° Northwest 256 295 26,000  Level Washington Center
12:03PM 37.2528 -80.0225 340° North 256 295 26,000  Level Washington Center
12:04PM 37.3225 -80.0578 338° Northwest 256 295 26,000  Level Washington Center
12:05PM 37.3942 -80.0933 338° Northwest 262 302 26,000  Level Washington Center
12:06PM 37.4639 -80.1264 339° North 267 307 26,000  Level Washington Center
12:07PM 37.5356 -80.1619 339° North 267 307 26,000  Level Washington Center
12:08PM 37.5989 -80.1947 338° Northwest 267 307 26,000  Level Washington Center
12:09PM 37.6706 -80.2281 340° North 267 307 26,000  Level Washington Center
12:10PM 37.7400 -80.2664 336° Northwest 267 307 26,000  Level Washington Center
12:11PM 37.8097 -80.2969 341° North 267 307 26,000  Level Washington Center
12:12PM 37.8814 -80.3356 337° Northwest 267 307 26,000  Level Washington Center
12:13PM 37.9611 -80.3750 339° North 267 307 26,000  Level Washington Center
12:14PM 38.0328 -80.4086 340° North 267 307 26,000  Level Washington Center
12:15PM 38.1042 -80.4475 337° Northwest 267 307 26,000  Level Washington Center
12:16PM 38.1758 -80.4836 338° Northwest 267 307 26,000  Level Washington Center
12:18PM 38.2906 -80.5347 341° North 278 320 26,000  Level Indianapolis Center
12:19PM 38.3631 -80.5703 339° North 280 322 26,000 -60 Level Indianapolis Center
12:20PM 38.4336 -80.6056 339° North 275 316 25,900 -60 Descending Indianapolis Center
12:21PM 38.5058 -80.6428 338° Northwest 280 322 25,900  Level Indianapolis Center
12:22PM 38.5758 -80.6786 338° Northwest 274 315 25,900  Level Indianapolis Center
12:23PM 38.6619 -80.7228 338° Northwest 277 319 25,900  Level Indianapolis Center
12:24PM 38.7353 -80.7606 338° Northwest 282 325 25,900  Level Indianapolis Center
12:25PM 38.8058 -80.7958 339° North 276 318 25,900  Level Indianapolis Center
12:26PM 38.8781 -80.8325 338° Northwest 280 322 25,900  Level Indianapolis Center
12:27PM 38.9492 -80.8708 337° Northwest 279 321 25,900  Level Indianapolis Center
12:28PM 39.0211 -80.9072 339° North 279 321 25,900  Level Indianapolis Center
12:29PM 39.1069 -80.9514 338° Northwest 278 320 26,000  Climbing Indianapolis Center
12:30PM 39.1778 -80.9892 338° Northwest 278 320 26,000  Level Indianapolis Center
12:31PM 39.2506 -81.0244 339° North 279 321 26,000  Level Indianapolis Center
12:32PM 39.3228 -81.0639 337° Northwest 282 325 26,000  Level Indianapolis Center
12:33PM 39.3942 -81.1019 338° Northwest 279 321 26,000  Level Indianapolis Center
12:34PM 39.4667 -81.1389 339° North 280 322 26,000  Level Indianapolis Center
12:34PM 39.4944 -81.1506 342° North 272 313 26,000  Level Cleveland Center
12:35PM 39.5694 -81.1756 346° North 272 313 26,000  Level Cleveland Center
12:36PM 39.6464 -81.1950 349° North 272 313 26,000  Level Cleveland Center
12:37PM 39.7236 -81.2147 349° North 272 313 26,000  Level Cleveland Center
12:38PM 39.7983 -81.2422 344° North 278 320 26,000  Level Cleveland Center
12:39PM 39.8753 -81.2647 347° North 278 320 26,000  Level Cleveland Center
12:40PM 39.9358 -81.2833 347° North 281 323 26,000  Level Indianapolis Center
12:41PM 40.0150 -81.3094 346° North 282 325 26,000  Level Indianapolis Center
12:42PM 40.1050 -81.3367 347° North 282 325 26,000  Level Indianapolis Center
12:43PM 40.1853 -81.3658 344° North 278 320 26,000  Level Cleveland Center
12:44PM 40.2539 -81.4156 331° Northwest 278 320 26,000  Level Cleveland Center
12:45PM 40.3222 -81.4600 334° Northwest 278 320 26,000 -60 Level Cleveland Center
12:46PM 40.3886 -81.5072 332° Northwest 278 320 25,900 -60 Descending Cleveland Center
12:47PM 40.4592 -81.5544 333° Northwest 278 320 25,900  Level Cleveland Center
12:48PM 40.5275 -81.5992 334° Northwest 278 320 25,900  Level Cleveland Center
12:49PM 40.5917 -81.6414 333° Northwest 278 320 25,900  Level Cleveland Center
12:50PM 40.6600 -81.6889 332° Northwest 278 320 25,900  Level Cleveland Center
12:51PM 40.7261 -81.7419 329° Northwest 278 320 26,000  Climbing Cleveland Center
12:52PM 40.7925 -81.7925 330° Northwest 278 320 26,000  Level Cleveland Center
12:53PM 40.8586 -81.8458 329° Northwest 278 320 26,000  Level Cleveland Center
12:54PM 40.9267 -81.8967 331° Northwest 278 320 26,000  Level Cleveland Center
12:55PM 40.9969 -81.9531 329° Northwest 272 313 26,000 -120 Level Cleveland Center
12:56PM 41.0611 -82.0042 329° Northwest 272 313 25,800 -900 Descending Cleveland Center
12:57PM 41.1292 -82.0497 333° Northwest 272 313 24,200 -1,200 Descending Cleveland Center
12:58PM 41.1931 -82.1008 329° Northwest 277 319 23,500 -1,200 Descending Cleveland Center
12:59PM 41.2550 -82.1547 327° Northwest 264 304 21,800 -1,740 Descending Cleveland Center
01:00PM 41.3211 -82.2061 330° Northwest 269 310 20,100 -1,560 Descending Cleveland Center
01:01PM 41.3847 -82.2575 329° Northwest 275 316 18,700 -1,440 Descending Cleveland Center
01:02PM 41.4528 -82.3147 328° Northwest 286 329 17,200 -1,620 Descending Cleveland Center
01:03PM 41.5228 -82.3692 330° Northwest 297 342 15,500 -1,740 Descending Cleveland Center
01:04PM 41.5928 -82.4239 330° Northwest 292 336 13,800 -3,240 Descending Cleveland Center
01:05PM 41.6586 -82.4758 329° Northwest 282 325 9,000 -1,800 Descending Cleveland Center
01:06PM 41.6875 -82.5017 326° Northwest 272 313 11,400 1,500 Climbing Cleveland Center
01:06PM 41.7225 -82.5278 331° Northwest 277 319 10,500 -1,680 Descending Cleveland Center
01:07PM 41.7533 -82.5539 328° Northwest 276 318 9,700 -1,440 Descending Cleveland Center
01:07PM 41.7861 -82.5825 327° Northwest 277 319 9,100 -720 Descending Cleveland Center
01:08PM 41.8169 -82.6058 331° Northwest 256 295 9,000 -120 Descending Cleveland Center
01:08PM 41.8478 -82.6292 331° Northwest 266 306 9,000  Level Cleveland Center
01:09PM 41.8769 -82.6411 343° North 240 276 9,000  Level Cleveland Center
01:09PM 41.9081 -82.6478 351° North 241 277 9,000  Level Cleveland Center
01:10PM 41.9411 -82.6572 348° North 234 269 9,000  Level Cleveland Center
01:10PM 41.9744 -82.6667 348° North 231 266 9,000 -420 Level Cleveland Center
01:11PM 42.0072 -82.6903 332° Northwest 253 291 8,600 -720 Descending Cleveland Center
01:11PM 42.0339 -82.7133 327° Northwest 231 266 8,300 -840 Descending Cleveland Center
01:12PM 42.0667 -82.7453 324° Northwest 257 296 7,800 -720 Descending Cleveland Center
01:12PM 42.0914 -82.7658 328° Northwest 242 278 7,600 -600 Descending Cleveland Center
01:13PM 42.1242 -82.7919 329° Northwest 240 276 7,200 -600 Descending Cleveland Center
01:13PM 42.1511 -82.8069 338° Northwest 247 284 7,000 -540 Descending Cleveland Center
01:14PM 42.1861 -82.8194 345° North 235 270 6,700 -540 Descending Cleveland Center
01:14PM 42.2131 -82.8289 345° North 237 273 6,500 -600 Descending Cleveland Center
01:15PM 42.2483 -82.8439 343° North 228 262 6,100 -660 Descending Cleveland Center
01:15PM 42.2731 -82.8561 340° North 226 260 5,900 -600 Descending Cleveland Center
01:16PM 42.3061 -82.8769 335° Northwest 210 242 5,500 -720 Descending Cleveland Center
01:17PM 42.3617 -82.9069 338° Northwest 210 242 4,900 -600 Descending Cleveland Center
01:18PM 42.4153 -82.9344 339° North 204 235 4,400 -480 Descending Cleveland Center
01:19PM 42.4689 -82.9589 341° North 201 231 4,000 -240 Descending Cleveland Center
01:20PM 42.5097 -83.0028 322° Northwest 204 235 4,000  Level Cleveland Center
01:21PM 42.5522 -83.0636 313° West 203 234 4,000  Level Cleveland Center
01:22PM 42.5842 -83.1297 303° West 209 241 4,000 -300 Level Cleveland Center
01:23PM 42.6014 -83.2036 288° West 215 247 3,400 -540 Descending Cleveland Center
01:24PM 42.6100 -83.2747 279° West 179 206 3,000 -240 Descending Cleveland Center
01:25PM 42.6086 -83.3394 268° West 168 193 3,000  Level Cleveland Center
01:26PM 42.6028 -83.4014 263° West 148 170 3,000  Level Cleveland Center
01:27PM 42.5972 -83.4575 262° West 146 168 3,000  Level Cleveland Center
01:28PM 42.5939 -83.5136 265° West 155 178 3,000  Level Cleveland Center